sensor_id;sensor_type;location;lat;lon;timestamp;P1;durP1;ratioP1;P2;durP2;ratioP2
28009;SDS011;15334;49.494;8.410;2023-06-22T00:00:30;8.10;;;4.45;;
28009;SDS011;15334;49.494;8.410;2023-06-22T00:03:00;7.40;;;4.45;;
28009;SDS011;15334;49.494;8.410;2023-06-22T00:05:28;10.63;;;5.45;;
28009;SDS011;15334;49.494;8.410;2023-06-22T00:07:56;8.73;;;4.95;;
28009;SDS011;15334;49.494;8.410;2023-06-22T00:10:24;9.80;;;5.00;;
28009;SDS011;15334;49.494;8.410;2023-06-22T00:12:52;10.05;;;5.82;;
28009;SDS011;15334;49.494;8.410;2023-06-22T00:15:20;8.45;;;5.07;;
28009;SDS011;15334;49.494;8.410;2023-06-22T00:17:49;9.25;;;5.18;;
28009;SDS011;15334;49.494;8.410;2023-06-22T00:20:18;8.70;;;5.57;;
28009;SDS011;15334;49.494;8.410;2023-06-22T00:22:46;8.95;;;5.38;;
28009;SDS011;15334;49.494;8.410;2023-06-22T00:25:14;10.27;;;6.00;;
28009;SDS011;15334;49.494;8.410;2023-06-22T00:27:42;8.55;;;5.53;;
28009;SDS011;15334;49.494;8.410;2023-06-22T00:30:10;9.20;;;5.75;;
28009;SDS011;15334;49.494;8.410;2023-06-22T00:32:39;13.90;;;5.68;;
28009;SDS011;15334;49.494;8.410;2023-06-22T00:35:08;10.15;;;5.88;;
28009;SDS011;15334;49.494;8.410;2023-06-22T00:37:36;13.23;;;6.05;;
28009;SDS011;15334;49.494;8.410;2023-06-22T00:40:07;8.70;;;5.55;;
28009;SDS011;15334;49.494;8.410;2023-06-22T00:42:37;9.93;;;6.13;;
28009;SDS011;15334;49.494;8.410;2023-06-22T00:45:06;10.05;;;6.05;;
28009;SDS011;15334;49.494;8.410;2023-06-22T00:47:35;10.23;;;5.43;;
28009;SDS011;15334;49.494;8.410;2023-06-22T00:50:04;9.00;;;5.07;;
28009;SDS011;15334;49.494;8.410;2023-06-22T00:52:36;13.45;;;6.50;;
28009;SDS011;15334;49.494;8.410;2023-06-22T00:55:09;11.38;;;6.18;;
28009;SDS011;15334;49.494;8.410;2023-06-22T00:57:37;12.05;;;5.85;;
28009;SDS011;15334;49.494;8.410;2023-06-22T01:00:06;13.18;;;7.07;;
28009;SDS011;15334;49.494;8.410;2023-06-22T01:02:36;15.45;;;7.43;;
28009;SDS011;15334;49.494;8.410;2023-06-22T01:05:05;13.77;;;6.72;;
28009;SDS011;15334;49.494;8.410;2023-06-22T01:07:35;12.10;;;7.93;;
28009;SDS011;15334;49.494;8.410;2023-06-22T01:10:11;12.23;;;7.40;;
28009;SDS011;15334;49.494;8.410;2023-06-22T01:12:47;13.07;;;7.95;;
28009;SDS011;15334;49.494;8.410;2023-06-22T01:18:04;12.50;;;8.40;;
28009;SDS011;15334;49.494;8.410;2023-06-22T01:20:36;15.07;;;8.30;;
28009;SDS011;15334;49.494;8.410;2023-06-22T01:23:10;13.10;;;8.85;;
28009;SDS011;15334;49.494;8.410;2023-06-22T01:25:46;15.07;;;8.73;;
28009;SDS011;15334;49.494;8.410;2023-06-22T01:28:32;11.75;;;7.88;;
28009;SDS011;15334;49.494;8.410;2023-06-22T01:31:12;13.65;;;8.80;;
28009;SDS011;15334;49.494;8.410;2023-06-22T01:33:44;10.88;;;7.43;;
28009;SDS011;15334;49.494;8.410;2023-06-22T01:36:14;14.40;;;8.82;;
28009;SDS011;15334;49.494;8.410;2023-06-22T01:38:43;14.35;;;8.02;;
28009;SDS011;15334;49.494;8.410;2023-06-22T01:41:12;15.75;;;9.52;;
28009;SDS011;15334;49.494;8.410;2023-06-22T01:43:43;14.77;;;8.98;;
28009;SDS011;15334;49.494;8.410;2023-06-22T01:46:12;15.30;;;8.77;;
28009;SDS011;15334;49.494;8.410;2023-06-22T01:48:41;17.63;;;9.10;;
28009;SDS011;15334;49.494;8.410;2023-06-22T01:51:09;15.00;;;8.98;;
28009;SDS011;15334;49.494;8.410;2023-06-22T01:53:37;16.30;;;9.50;;
28009;SDS011;15334;49.494;8.410;2023-06-22T01:56:05;13.88;;;8.45;;
28009;SDS011;15334;49.494;8.410;2023-06-22T01:58:33;13.68;;;8.85;;
28009;SDS011;15334;49.494;8.410;2023-06-22T02:01:07;18.23;;;8.70;;
28009;SDS011;15334;49.494;8.410;2023-06-22T02:03:49;13.52;;;9.00;;
28009;SDS011;15334;49.494;8.410;2023-06-22T02:06:21;15.02;;;8.98;;
28009;SDS011;15334;49.494;8.410;2023-06-22T02:08:55;18.33;;;9.73;;
28009;SDS011;15334;49.494;8.410;2023-06-22T02:11:27;20.73;;;10.55;;
28009;SDS011;15334;49.494;8.410;2023-06-22T02:13:56;21.42;;;10.95;;
28009;SDS011;15334;49.494;8.410;2023-06-22T02:16:26;17.25;;;11.18;;
28009;SDS011;15334;49.494;8.410;2023-06-22T02:18:56;16.55;;;10.07;;
28009;SDS011;15334;49.494;8.410;2023-06-22T02:21:29;16.10;;;10.23;;
28009;SDS011;15334;49.494;8.410;2023-06-22T02:23:58;15.32;;;10.02;;
28009;SDS011;15334;49.494;8.410;2023-06-22T02:26:26;19.67;;;11.95;;
28009;SDS011;15334;49.494;8.410;2023-06-22T02:28:54;16.13;;;9.90;;
28009;SDS011;15334;49.494;8.410;2023-06-22T02:31:22;16.55;;;9.40;;
28009;SDS011;15334;49.494;8.410;2023-06-22T02:33:58;16.65;;;10.63;;
28009;SDS011;15334;49.494;8.410;2023-06-22T02:36:27;17.70;;;11.50;;
28009;SDS011;15334;49.494;8.410;2023-06-22T02:38:56;19.50;;;11.45;;
28009;SDS011;15334;49.494;8.410;2023-06-22T02:41:25;20.35;;;13.07;;
28009;SDS011;15334;49.494;8.410;2023-06-22T02:43:53;15.57;;;10.05;;
28009;SDS011;15334;49.494;8.410;2023-06-22T02:46:21;17.25;;;10.95;;
28009;SDS011;15334;49.494;8.410;2023-06-22T02:48:49;17.73;;;10.63;;
28009;SDS011;15334;49.494;8.410;2023-06-22T02:51:18;20.38;;;11.43;;
28009;SDS011;15334;49.494;8.410;2023-06-22T02:53:46;21.10;;;10.73;;
28009;SDS011;15334;49.494;8.410;2023-06-22T02:56:14;16.98;;;10.50;;
28009;SDS011;15334;49.494;8.410;2023-06-22T02:58:43;16.63;;;9.90;;
28009;SDS011;15334;49.494;8.410;2023-06-22T03:01:11;13.95;;;8.65;;
28009;SDS011;15334;49.494;8.410;2023-06-22T03:03:40;13.15;;;8.68;;
28009;SDS011;15334;49.494;8.410;2023-06-22T03:06:08;13.75;;;8.93;;
28009;SDS011;15334;49.494;8.410;2023-06-22T03:11:09;15.50;;;8.65;;
28009;SDS011;15334;49.494;8.410;2023-06-22T03:13:37;17.85;;;10.25;;
28009;SDS011;15334;49.494;8.410;2023-06-22T03:16:05;16.92;;;9.18;;
28009;SDS011;15334;49.494;8.410;2023-06-22T03:18:33;15.15;;;8.95;;
28009;SDS011;15334;49.494;8.410;2023-06-22T03:21:01;12.82;;;9.30;;
28009;SDS011;15334;49.494;8.410;2023-06-22T03:23:29;14.15;;;9.40;;
28009;SDS011;15334;49.494;8.410;2023-06-22T03:25:59;15.93;;;9.77;;
28009;SDS011;15334;49.494;8.410;2023-06-22T03:28:27;12.00;;;8.13;;
28009;SDS011;15334;49.494;8.410;2023-06-22T03:30:57;13.57;;;8.70;;
28009;SDS011;15334;49.494;8.410;2023-06-22T03:33:25;15.70;;;8.60;;
28009;SDS011;15334;49.494;8.410;2023-06-22T03:35:53;14.70;;;9.45;;
28009;SDS011;15334;49.494;8.410;2023-06-22T03:38:21;15.32;;;9.57;;
28009;SDS011;15334;49.494;8.410;2023-06-22T03:40:49;21.23;;;10.55;;
28009;SDS011;15334;49.494;8.410;2023-06-22T03:43:18;15.70;;;9.77;;
28009;SDS011;15334;49.494;8.410;2023-06-22T03:45:46;15.45;;;9.43;;
28009;SDS011;15334;49.494;8.410;2023-06-22T03:48:15;13.60;;;9.68;;
28009;SDS011;15334;49.494;8.410;2023-06-22T03:50:43;16.30;;;9.13;;
28009;SDS011;15334;49.494;8.410;2023-06-22T03:53:11;17.45;;;10.20;;
28009;SDS011;15334;49.494;8.410;2023-06-22T03:55:40;17.08;;;10.32;;
28009;SDS011;15334;49.494;8.410;2023-06-22T03:58:15;15.25;;;10.15;;
28009;SDS011;15334;49.494;8.410;2023-06-22T04:00:46;15.13;;;10.00;;
28009;SDS011;15334;49.494;8.410;2023-06-22T04:03:15;14.52;;;10.02;;
28009;SDS011;15334;49.494;8.410;2023-06-22T04:05:45;18.75;;;11.40;;
28009;SDS011;15334;49.494;8.410;2023-06-22T04:08:13;18.30;;;11.00;;
28009;SDS011;15334;49.494;8.410;2023-06-22T04:10:42;17.88;;;11.63;;
28009;SDS011;15334;49.494;8.410;2023-06-22T04:13:10;18.48;;;11.32;;
28009;SDS011;15334;49.494;8.410;2023-06-22T04:15:38;18.92;;;10.95;;
28009;SDS011;15334;49.494;8.410;2023-06-22T04:18:08;25.42;;;13.90;;
28009;SDS011;15334;49.494;8.410;2023-06-22T04:20:36;24.75;;;12.63;;
28009;SDS011;15334;49.494;8.410;2023-06-22T04:23:04;23.38;;;12.70;;
28009;SDS011;15334;49.494;8.410;2023-06-22T04:25:32;21.10;;;12.27;;
28009;SDS011;15334;49.494;8.410;2023-06-22T04:28:01;21.60;;;11.90;;
28009;SDS011;15334;49.494;8.410;2023-06-22T04:30:32;21.92;;;12.68;;
28009;SDS011;15334;49.494;8.410;2023-06-22T04:33:00;19.92;;;13.38;;
28009;SDS011;15334;49.494;8.410;2023-06-22T04:35:30;20.38;;;13.48;;
28009;SDS011;15334;49.494;8.410;2023-06-22T04:37:58;23.23;;;11.40;;
28009;SDS011;15334;49.494;8.410;2023-06-22T04:40:26;18.30;;;11.20;;
28009;SDS011;15334;49.494;8.410;2023-06-22T04:43:05;22.58;;;12.32;;
28009;SDS011;15334;49.494;8.410;2023-06-22T04:45:36;20.15;;;13.05;;
28009;SDS011;15334;49.494;8.410;2023-06-22T04:48:05;16.17;;;11.13;;
28009;SDS011;15334;49.494;8.410;2023-06-22T04:50:36;19.45;;;11.68;;
28009;SDS011;15334;49.494;8.410;2023-06-22T04:53:05;20.73;;;11.82;;
28009;SDS011;15334;49.494;8.410;2023-06-22T04:55:33;19.13;;;11.93;;
28009;SDS011;15334;49.494;8.410;2023-06-22T04:58:13;19.98;;;11.40;;
28009;SDS011;15334;49.494;8.410;2023-06-22T05:00:41;21.75;;;11.95;;
28009;SDS011;15334;49.494;8.410;2023-06-22T05:03:10;18.02;;;11.40;;
28009;SDS011;15334;49.494;8.410;2023-06-22T05:05:47;20.52;;;12.00;;
28009;SDS011;15334;49.494;8.410;2023-06-22T05:08:23;17.65;;;11.73;;
28009;SDS011;15334;49.494;8.410;2023-06-22T05:10:55;15.75;;;11.35;;
28009;SDS011;15334;49.494;8.410;2023-06-22T05:13:31;18.75;;;10.68;;
28009;SDS011;15334;49.494;8.410;2023-06-22T05:15:59;17.77;;;11.88;;
28009;SDS011;15334;49.494;8.410;2023-06-22T05:18:33;17.35;;;11.43;;
28009;SDS011;15334;49.494;8.410;2023-06-22T05:21:09;11.73;;;7.53;;
28009;SDS011;15334;49.494;8.410;2023-06-22T05:23:37;12.90;;;7.32;;
28009;SDS011;15334;49.494;8.410;2023-06-22T05:26:05;11.52;;;6.55;;
28009;SDS011;15334;49.494;8.410;2023-06-22T05:28:35;13.30;;;7.68;;
28009;SDS011;15334;49.494;8.410;2023-06-22T05:31:03;12.35;;;7.82;;
28009;SDS011;15334;49.494;8.410;2023-06-22T05:33:31;12.07;;;8.40;;
28009;SDS011;15334;49.494;8.410;2023-06-22T05:36:00;10.52;;;6.88;;
28009;SDS011;15334;49.494;8.410;2023-06-22T05:38:29;11.60;;;7.47;;
28009;SDS011;15334;49.494;8.410;2023-06-22T05:40:57;11.93;;;8.52;;
28009;SDS011;15334;49.494;8.410;2023-06-22T05:43:25;11.32;;;6.00;;
28009;SDS011;15334;49.494;8.410;2023-06-22T05:45:53;9.20;;;6.15;;
28009;SDS011;15334;49.494;8.410;2023-06-22T05:48:22;12.25;;;7.07;;
28009;SDS011;15334;49.494;8.410;2023-06-22T05:50:50;8.63;;;5.85;;
28009;SDS011;15334;49.494;8.410;2023-06-22T05:53:18;11.88;;;6.85;;
28009;SDS011;15334;49.494;8.410;2023-06-22T05:55:48;9.00;;;6.22;;
28009;SDS011;15334;49.494;8.410;2023-06-22T05:58:16;12.93;;;7.07;;
28009;SDS011;15334;49.494;8.410;2023-06-22T06:00:44;11.27;;;6.13;;
28009;SDS011;15334;49.494;8.410;2023-06-22T06:03:12;10.50;;;6.18;;
28009;SDS011;15334;49.494;8.410;2023-06-22T06:05:43;9.10;;;5.85;;
28009;SDS011;15334;49.494;8.410;2023-06-22T06:08:12;10.25;;;6.05;;
28009;SDS011;15334;49.494;8.410;2023-06-22T06:10:40;10.35;;;6.38;;
28009;SDS011;15334;49.494;8.410;2023-06-22T06:13:09;9.18;;;5.80;;
28009;SDS011;15334;49.494;8.410;2023-06-22T06:15:37;12.52;;;6.78;;
28009;SDS011;15334;49.494;8.410;2023-06-22T06:18:06;9.00;;;5.30;;
28009;SDS011;15334;49.494;8.410;2023-06-22T06:20:34;10.55;;;6.60;;
28009;SDS011;15334;49.494;8.410;2023-06-22T06:23:02;12.05;;;6.75;;
28009;SDS011;15334;49.494;8.410;2023-06-22T06:25:29;12.02;;;6.80;;
28009;SDS011;15334;49.494;8.410;2023-06-22T06:27:57;10.50;;;5.88;;
28009;SDS011;15334;49.494;8.410;2023-06-22T06:30:27;7.85;;;5.00;;
28009;SDS011;15334;49.494;8.410;2023-06-22T06:32:55;8.90;;;4.75;;
28009;SDS011;15334;49.494;8.410;2023-06-22T06:35:23;11.65;;;6.05;;
28009;SDS011;15334;49.494;8.410;2023-06-22T06:37:52;9.20;;;5.18;;
28009;SDS011;15334;49.494;8.410;2023-06-22T06:40:20;8.95;;;5.30;;
28009;SDS011;15334;49.494;8.410;2023-06-22T06:42:48;9.50;;;5.65;;
28009;SDS011;15334;49.494;8.410;2023-06-22T06:45:17;12.48;;;6.45;;
28009;SDS011;15334;49.494;8.410;2023-06-22T06:47:47;13.80;;;5.88;;
28009;SDS011;15334;49.494;8.410;2023-06-22T06:50:16;7.22;;;4.75;;
28009;SDS011;15334;49.494;8.410;2023-06-22T06:52:44;10.27;;;5.72;;
28009;SDS011;15334;49.494;8.410;2023-06-22T06:55:12;8.40;;;5.15;;
28009;SDS011;15334;49.494;8.410;2023-06-22T06:57:40;13.95;;;5.68;;
28009;SDS011;15334;49.494;8.410;2023-06-22T07:00:09;12.38;;;5.68;;
28009;SDS011;15334;49.494;8.410;2023-06-22T07:02:41;9.57;;;5.65;;
28009;SDS011;15334;49.494;8.410;2023-06-22T07:05:11;10.95;;;5.80;;
28009;SDS011;15334;49.494;8.410;2023-06-22T07:07:39;9.23;;;5.20;;
28009;SDS011;15334;49.494;8.410;2023-06-22T07:10:09;8.07;;;5.72;;
28009;SDS011;15334;49.494;8.410;2023-06-22T07:12:37;11.98;;;5.82;;
28009;SDS011;15334;49.494;8.410;2023-06-22T07:15:06;9.55;;;5.85;;
28009;SDS011;15334;49.494;8.410;2023-06-22T07:17:35;7.70;;;4.70;;
28009;SDS011;15334;49.494;8.410;2023-06-22T07:20:07;9.27;;;5.05;;
28009;SDS011;15334;49.494;8.410;2023-06-22T07:22:38;12.30;;;5.80;;
28009;SDS011;15334;49.494;8.410;2023-06-22T07:25:07;9.63;;;5.78;;
28009;SDS011;15334;49.494;8.410;2023-06-22T07:27:36;9.77;;;6.00;;
28009;SDS011;15334;49.494;8.410;2023-06-22T07:30:05;10.68;;;5.88;;
28009;SDS011;15334;49.494;8.410;2023-06-22T07:32:33;8.27;;;4.72;;
28009;SDS011;15334;49.494;8.410;2023-06-22T07:35:01;8.93;;;4.78;;
28009;SDS011;15334;49.494;8.410;2023-06-22T07:37:31;8.52;;;4.60;;
28009;SDS011;15334;49.494;8.410;2023-06-22T07:40:01;7.68;;;4.72;;
28009;SDS011;15334;49.494;8.410;2023-06-22T07:42:33;9.10;;;5.30;;
28009;SDS011;15334;49.494;8.410;2023-06-22T07:45:01;11.52;;;5.10;;
28009;SDS011;15334;49.494;8.410;2023-06-22T07:47:30;10.93;;;4.50;;
28009;SDS011;15334;49.494;8.410;2023-06-22T07:50:02;10.75;;;5.75;;
28009;SDS011;15334;49.494;8.410;2023-06-22T07:52:30;8.55;;;4.47;;
28009;SDS011;15334;49.494;8.410;2023-06-22T07:54:59;6.35;;;4.18;;
28009;SDS011;15334;49.494;8.410;2023-06-22T07:57:28;8.85;;;4.40;;
28009;SDS011;15334;49.494;8.410;2023-06-22T08:00:00;9.45;;;4.38;;
28009;SDS011;15334;49.494;8.410;2023-06-22T08:02:37;9.80;;;4.50;;
28009;SDS011;15334;49.494;8.410;2023-06-22T08:05:06;12.38;;;5.20;;
28009;SDS011;15334;49.494;8.410;2023-06-22T08:07:54;7.13;;;4.30;;
28009;SDS011;15334;49.494;8.410;2023-06-22T08:10:23;10.48;;;4.07;;
28009;SDS011;15334;49.494;8.410;2023-06-22T08:12:52;14.48;;;7.43;;
28009;SDS011;15334;49.494;8.410;2023-06-22T08:15:20;9.20;;;5.13;;
28009;SDS011;15334;49.494;8.410;2023-06-22T08:17:48;8.20;;;5.22;;
28009;SDS011;15334;49.494;8.410;2023-06-22T08:20:19;8.57;;;4.63;;
28009;SDS011;15334;49.494;8.410;2023-06-22T08:22:47;11.60;;;4.40;;
28009;SDS011;15334;49.494;8.410;2023-06-22T08:25:15;7.97;;;4.68;;
28009;SDS011;15334;49.494;8.410;2023-06-22T08:27:44;8.77;;;5.13;;
28009;SDS011;15334;49.494;8.410;2023-06-22T08:30:15;14.68;;;8.98;;
28009;SDS011;15334;49.494;8.410;2023-06-22T08:32:43;9.60;;;4.97;;
28009;SDS011;15334;49.494;8.410;2023-06-22T08:35:11;7.13;;;4.30;;
28009;SDS011;15334;49.494;8.410;2023-06-22T08:37:39;10.55;;;4.55;;
28009;SDS011;15334;49.494;8.410;2023-06-22T08:40:08;7.55;;;4.43;;
28009;SDS011;15334;49.494;8.410;2023-06-22T08:42:37;7.13;;;4.07;;
28009;SDS011;15334;49.494;8.410;2023-06-22T08:45:08;11.63;;;4.75;;
28009;SDS011;15334;49.494;8.410;2023-06-22T08:47:38;9.32;;;4.00;;
28009;SDS011;15334;49.494;8.410;2023-06-22T08:50:07;7.22;;;3.88;;
28009;SDS011;15334;49.494;8.410;2023-06-22T08:52:36;9.43;;;4.35;;
28009;SDS011;15334;49.494;8.410;2023-06-22T08:55:04;6.70;;;4.57;;
28009;SDS011;15334;49.494;8.410;2023-06-22T08:57:33;10.98;;;4.63;;
28009;SDS011;15334;49.494;8.410;2023-06-22T09:00:03;5.95;;;3.70;;
28009;SDS011;15334;49.494;8.410;2023-06-22T09:02:38;6.93;;;4.25;;
28009;SDS011;15334;49.494;8.410;2023-06-22T09:05:07;10.82;;;3.92;;
28009;SDS011;15334;49.494;8.410;2023-06-22T09:07:36;7.85;;;4.22;;
28009;SDS011;15334;49.494;8.410;2023-06-22T09:10:04;6.82;;;3.63;;
28009;SDS011;15334;49.494;8.410;2023-06-22T09:12:33;10.68;;;4.13;;
28009;SDS011;15334;49.494;8.410;2023-06-22T09:15:04;9.32;;;4.15;;
28009;SDS011;15334;49.494;8.410;2023-06-22T09:17:40;7.75;;;4.05;;
28009;SDS011;15334;49.494;8.410;2023-06-22T09:20:09;12.60;;;7.72;;
28009;SDS011;15334;49.494;8.410;2023-06-22T09:22:37;8.25;;;4.00;;
28009;SDS011;15334;49.494;8.410;2023-06-22T09:25:06;13.75;;;4.50;;
28009;SDS011;15334;49.494;8.410;2023-06-22T09:27:34;7.43;;;3.97;;
28009;SDS011;15334;49.494;8.410;2023-06-22T09:30:02;8.43;;;3.85;;
28009;SDS011;15334;49.494;8.410;2023-06-22T09:32:31;7.40;;;3.92;;
28009;SDS011;15334;49.494;8.410;2023-06-22T09:35:03;8.88;;;4.30;;
28009;SDS011;15334;49.494;8.410;2023-06-22T09:37:33;6.03;;;3.75;;
28009;SDS011;15334;49.494;8.410;2023-06-22T09:40:01;9.90;;;4.00;;
28009;SDS011;15334;49.494;8.410;2023-06-22T09:45:01;7.60;;;4.20;;
28009;SDS011;15334;49.494;8.410;2023-06-22T09:47:29;5.93;;;4.03;;
28009;SDS011;15334;49.494;8.410;2023-06-22T09:49:58;10.13;;;4.32;;
28009;SDS011;15334;49.494;8.410;2023-06-22T09:52:27;10.70;;;4.20;;
28009;SDS011;15334;49.494;8.410;2023-06-22T09:55:13;7.28;;;4.40;;
28009;SDS011;15334;49.494;8.410;2023-06-22T09:57:42;6.53;;;3.67;;
28009;SDS011;15334;49.494;8.410;2023-06-22T10:00:10;8.25;;;3.83;;
28009;SDS011;15334;49.494;8.410;2023-06-22T10:02:40;5.88;;;3.88;;
28009;SDS011;15334;49.494;8.410;2023-06-22T10:05:09;7.82;;;4.18;;
28009;SDS011;15334;49.494;8.410;2023-06-22T10:07:39;8.32;;;3.92;;
28009;SDS011;15334;49.494;8.410;2023-06-22T10:10:10;6.90;;;3.58;;
28009;SDS011;15334;49.494;8.410;2023-06-22T10:12:40;8.30;;;4.07;;
28009;SDS011;15334;49.494;8.410;2023-06-22T10:15:10;9.65;;;3.85;;
28009;SDS011;15334;49.494;8.410;2023-06-22T10:17:39;6.93;;;3.95;;
28009;SDS011;15334;49.494;8.410;2023-06-22T10:20:13;8.73;;;3.75;;
28009;SDS011;15334;49.494;8.410;2023-06-22T10:22:53;9.38;;;4.00;;
28009;SDS011;15334;49.494;8.410;2023-06-22T10:25:54;6.78;;;4.10;;
28009;SDS011;15334;49.494;8.410;2023-06-22T10:28:24;9.88;;;3.92;;
28009;SDS011;15334;49.494;8.410;2023-06-22T10:30:52;7.13;;;3.72;;
28009;SDS011;15334;49.494;8.410;2023-06-22T10:33:20;8.73;;;4.47;;
28009;SDS011;15334;49.494;8.410;2023-06-22T10:35:48;10.18;;;4.30;;
28009;SDS011;15334;49.494;8.410;2023-06-22T10:38:18;11.27;;;4.70;;
28009;SDS011;15334;49.494;8.410;2023-06-22T10:40:46;11.20;;;4.40;;
28009;SDS011;15334;49.494;8.410;2023-06-22T10:43:14;11.43;;;4.07;;
28009;SDS011;15334;49.494;8.410;2023-06-22T10:45:50;8.85;;;4.38;;
28009;SDS011;15334;49.494;8.410;2023-06-22T10:48:18;9.50;;;4.30;;
28009;SDS011;15334;49.494;8.410;2023-06-22T10:50:46;11.20;;;5.10;;
28009;SDS011;15334;49.494;8.410;2023-06-22T10:53:14;8.27;;;4.55;;
28009;SDS011;15334;49.494;8.410;2023-06-22T10:55:44;10.70;;;4.55;;
28009;SDS011;15334;49.494;8.410;2023-06-22T10:58:21;10.18;;;5.20;;
28009;SDS011;15334;49.494;8.410;2023-06-22T11:00:50;8.88;;;4.50;;
28009;SDS011;15334;49.494;8.410;2023-06-22T11:03:27;14.07;;;4.80;;
28009;SDS011;15334;49.494;8.410;2023-06-22T11:05:55;10.93;;;4.88;;
28009;SDS011;15334;49.494;8.410;2023-06-22T11:08:24;9.50;;;4.32;;
28009;SDS011;15334;49.494;8.410;2023-06-22T11:10:54;7.78;;;3.38;;
28009;SDS011;15334;49.494;8.410;2023-06-22T11:13:22;8.93;;;4.10;;
28009;SDS011;15334;49.494;8.410;2023-06-22T11:15:51;9.45;;;4.43;;
28009;SDS011;15334;49.494;8.410;2023-06-22T11:18:19;10.85;;;4.10;;
28009;SDS011;15334;49.494;8.410;2023-06-22T11:20:58;6.88;;;4.15;;
28009;SDS011;15334;49.494;8.410;2023-06-22T11:24:08;8.82;;;4.32;;
28009;SDS011;15334;49.494;8.410;2023-06-22T11:27:06;11.02;;;4.72;;
28009;SDS011;15334;49.494;8.410;2023-06-22T11:29:37;9.60;;;4.72;;
28009;SDS011;15334;49.494;8.410;2023-06-22T11:32:06;5.95;;;3.83;;
28009;SDS011;15334;49.494;8.410;2023-06-22T11:34:40;7.53;;;4.30;;
28009;SDS011;15334;49.494;8.410;2023-06-22T11:37:11;8.13;;;4.22;;
28009;SDS011;15334;49.494;8.410;2023-06-22T11:39:42;7.47;;;4.20;;
28009;SDS011;15334;49.494;8.410;2023-06-22T11:42:20;8.68;;;4.68;;
28009;SDS011;15334;49.494;8.410;2023-06-22T11:44:49;12.90;;;4.32;;
28009;SDS011;15334;49.494;8.410;2023-06-22T11:47:17;8.35;;;4.20;;
28009;SDS011;15334;49.494;8.410;2023-06-22T11:49:45;10.00;;;4.35;;
28009;SDS011;15334;49.494;8.410;2023-06-22T11:52:14;11.50;;;4.15;;
28009;SDS011;15334;49.494;8.410;2023-06-22T11:54:43;9.85;;;4.28;;
28009;SDS011;15334;49.494;8.410;2023-06-22T11:57:12;12.52;;;4.35;;
28009;SDS011;15334;49.494;8.410;2023-06-22T11:59:41;10.63;;;4.20;;
28009;SDS011;15334;49.494;8.410;2023-06-22T12:02:09;10.65;;;4.38;;
28009;SDS011;15334;49.494;8.410;2023-06-22T12:04:37;8.75;;;4.00;;
28009;SDS011;15334;49.494;8.410;2023-06-22T12:07:05;14.77;;;4.15;;
28009;SDS011;15334;49.494;8.410;2023-06-22T12:09:33;8.30;;;4.55;;
28009;SDS011;15334;49.494;8.410;2023-06-22T12:12:01;11.68;;;4.22;;
28009;SDS011;15334;49.494;8.410;2023-06-22T12:14:31;9.50;;;4.15;;
28009;SDS011;15334;49.494;8.410;2023-06-22T12:17:00;9.95;;;5.15;;
28009;SDS011;15334;49.494;8.410;2023-06-22T12:19:28;10.35;;;3.92;;
28009;SDS011;15334;49.494;8.410;2023-06-22T12:21:56;8.60;;;5.07;;
28009;SDS011;15334;49.494;8.410;2023-06-22T12:24:24;7.32;;;4.00;;
28009;SDS011;15334;49.494;8.410;2023-06-22T12:26:52;12.98;;;4.97;;
28009;SDS011;15334;49.494;8.410;2023-06-22T12:29:21;6.38;;;4.00;;
28009;SDS011;15334;49.494;8.410;2023-06-22T12:31:50;7.18;;;4.55;;
28009;SDS011;15334;49.494;8.410;2023-06-22T12:34:19;10.48;;;4.55;;
28009;SDS011;15334;49.494;8.410;2023-06-22T12:36:47;9.15;;;4.68;;
28009;SDS011;15334;49.494;8.410;2023-06-22T12:39:15;6.72;;;3.85;;
28009;SDS011;15334;49.494;8.410;2023-06-22T12:41:43;9.95;;;4.68;;
28009;SDS011;15334;49.494;8.410;2023-06-22T12:44:11;9.35;;;4.60;;
28009;SDS011;15334;49.494;8.410;2023-06-22T12:46:39;8.10;;;4.78;;
28009;SDS011;15334;49.494;8.410;2023-06-22T12:49:07;7.22;;;3.97;;
28009;SDS011;15334;49.494;8.410;2023-06-22T12:51:40;7.85;;;3.47;;
28009;SDS011;15334;49.494;8.410;2023-06-22T12:54:09;7.63;;;4.22;;
28009;SDS011;15334;49.494;8.410;2023-06-22T12:56:38;7.25;;;4.15;;
28009;SDS011;15334;49.494;8.410;2023-06-22T12:59:06;9.05;;;4.68;;
28009;SDS011;15334;49.494;8.410;2023-06-22T13:01:34;12.73;;;4.03;;
28009;SDS011;15334;49.494;8.410;2023-06-22T13:04:02;8.90;;;3.92;;
28009;SDS011;15334;49.494;8.410;2023-06-22T13:06:29;10.80;;;4.15;;
28009;SDS011;15334;49.494;8.410;2023-06-22T13:08:59;11.63;;;4.00;;
28009;SDS011;15334;49.494;8.410;2023-06-22T13:11:30;9.90;;;3.63;;
28009;SDS011;15334;49.494;8.410;2023-06-22T13:13:57;10.77;;;4.45;;
28009;SDS011;15334;49.494;8.410;2023-06-22T13:16:25;9.95;;;4.93;;
28009;SDS011;15334;49.494;8.410;2023-06-22T13:18:53;9.82;;;3.92;;
28009;SDS011;15334;49.494;8.410;2023-06-22T13:21:21;8.05;;;4.10;;
28009;SDS011;15334;49.494;8.410;2023-06-22T13:23:49;9.18;;;3.95;;
28009;SDS011;15334;49.494;8.410;2023-06-22T13:26:19;10.23;;;4.32;;
28009;SDS011;15334;49.494;8.410;2023-06-22T13:28:48;9.77;;;4.07;;
28009;SDS011;15334;49.494;8.410;2023-06-22T13:31:16;6.88;;;3.58;;
28009;SDS011;15334;49.494;8.410;2023-06-22T13:33:44;8.95;;;3.97;;
28009;SDS011;15334;49.494;8.410;2023-06-22T13:36:14;8.55;;;3.85;;
28009;SDS011;15334;49.494;8.410;2023-06-22T13:38:43;7.32;;;4.10;;
28009;SDS011;15334;49.494;8.410;2023-06-22T13:41:11;10.23;;;4.38;;
28009;SDS011;15334;49.494;8.410;2023-06-22T13:43:40;9.15;;;3.83;;
28009;SDS011;15334;49.494;8.410;2023-06-22T13:46:08;8.05;;;4.10;;
28009;SDS011;15334;49.494;8.410;2023-06-22T13:48:36;8.55;;;3.83;;
28009;SDS011;15334;49.494;8.410;2023-06-22T13:51:04;10.13;;;4.28;;
28009;SDS011;15334;49.494;8.410;2023-06-22T13:53:32;10.88;;;4.28;;
28009;SDS011;15334;49.494;8.410;2023-06-22T13:56:00;7.72;;;4.20;;
28009;SDS011;15334;49.494;8.410;2023-06-22T13:58:28;7.85;;;4.00;;
28009;SDS011;15334;49.494;8.410;2023-06-22T14:00:58;9.45;;;4.00;;
28009;SDS011;15334;49.494;8.410;2023-06-22T14:03:26;10.32;;;4.18;;
28009;SDS011;15334;49.494;8.410;2023-06-22T14:05:54;9.30;;;3.92;;
28009;SDS011;15334;49.494;8.410;2023-06-22T14:08:22;9.73;;;4.18;;
28009;SDS011;15334;49.494;8.410;2023-06-22T14:11:07;7.85;;;4.10;;
28009;SDS011;15334;49.494;8.410;2023-06-22T14:13:35;11.10;;;5.47;;
28009;SDS011;15334;49.494;8.410;2023-06-22T14:16:04;8.13;;;4.28;;
28009;SDS011;15334;49.494;8.410;2023-06-22T14:18:33;10.57;;;4.07;;
28009;SDS011;15334;49.494;8.410;2023-06-22T14:21:00;10.07;;;4.10;;
28009;SDS011;15334;49.494;8.410;2023-06-22T14:23:28;10.25;;;4.35;;
28009;SDS011;15334;49.494;8.410;2023-06-22T14:25:56;10.27;;;4.43;;
28009;SDS011;15334;49.494;8.410;2023-06-22T14:28:24;12.10;;;4.78;;
28009;SDS011;15334;49.494;8.410;2023-06-22T14:30:52;10.98;;;4.53;;
28009;SDS011;15334;49.494;8.410;2023-06-22T14:33:21;13.93;;;5.03;;
28009;SDS011;15334;49.494;8.410;2023-06-22T14:35:49;9.82;;;4.88;;
28009;SDS011;15334;49.494;8.410;2023-06-22T14:38:17;10.43;;;4.55;;
28009;SDS011;15334;49.494;8.410;2023-06-22T14:40:46;11.57;;;4.95;;
28009;SDS011;15334;49.494;8.410;2023-06-22T14:43:19;6.72;;;4.35;;
28009;SDS011;15334;49.494;8.410;2023-06-22T14:45:46;9.50;;;4.75;;
28009;SDS011;15334;49.494;8.410;2023-06-22T14:48:16;12.05;;;4.80;;
28009;SDS011;15334;49.494;8.410;2023-06-22T14:50:46;9.43;;;4.55;;
28009;SDS011;15334;49.494;8.410;2023-06-22T14:53:14;7.93;;;4.65;;
28009;SDS011;15334;49.494;8.410;2023-06-22T14:55:42;7.93;;;4.22;;
28009;SDS011;15334;49.494;8.410;2023-06-22T14:58:10;9.63;;;5.70;;
28009;SDS011;15334;49.494;8.410;2023-06-22T15:00:38;12.68;;;4.82;;